sensor_id;sensor_type;location;lat;lon;timestamp;P1;durP1;ratioP1;P2;durP2;ratioP2
16820;SDS011;8527;49.740;6.604;2023-08-06T00:03:09;8.20;;;3.40;;
16820;SDS011;8527;49.740;6.604;2023-08-06T00:08:08;6.72;;;3.15;;
16820;SDS011;8527;49.740;6.604;2023-08-06T00:13:06;10.57;;;3.30;;
16820;SDS011;8527;49.740;6.604;2023-08-06T00:18:11;11.20;;;3.55;;
16820;SDS011;8527;49.740;6.604;2023-08-06T00:23:09;8.85;;;3.40;;
16820;SDS011;8527;49.740;6.604;2023-08-06T00:28:07;8.40;;;3.38;;
16820;SDS011;8527;49.740;6.604;2023-08-06T00:33:06;8.68;;;3.13;;
16820;SDS011;8527;49.740;6.604;2023-08-06T00:38:11;9.13;;;3.30;;
16820;SDS011;8527;49.740;6.604;2023-08-06T00:43:16;11.35;;;3.40;;
16820;SDS011;8527;49.740;6.604;2023-08-06T00:48:15;9.18;;;3.10;;
16820;SDS011;8527;49.740;6.604;2023-08-06T00:53:18;6.30;;;3.10;;
16820;SDS011;8527;49.740;6.604;2023-08-06T00:58:23;8.50;;;3.10;;
16820;SDS011;8527;49.740;6.604;2023-08-06T01:03:39;6.32;;;2.95;;
16820;SDS011;8527;49.740;6.604;2023-08-06T01:08:43;5.90;;;2.75;;
16820;SDS011;8527;49.740;6.604;2023-08-06T01:13:51;8.55;;;2.80;;
16820;SDS011;8527;49.740;6.604;2023-08-06T01:19:03;8.32;;;2.55;;
16820;SDS011;8527;49.740;6.604;2023-08-06T01:24:07;6.70;;;2.28;;
16820;SDS011;8527;49.740;6.604;2023-08-06T01:29:10;7.38;;;2.15;;
16820;SDS011;8527;49.740;6.604;2023-08-06T01:34:17;5.80;;;2.57;;
16820;SDS011;8527;49.740;6.604;2023-08-06T01:39:23;9.27;;;2.10;;
16820;SDS011;8527;49.740;6.604;2023-08-06T01:44:21;4.93;;;1.92;;
16820;SDS011;8527;49.740;6.604;2023-08-06T01:49:20;4.75;;;1.63;;
16820;SDS011;8527;49.740;6.604;2023-08-06T01:54:18;9.35;;;2.00;;
16820;SDS011;8527;49.740;6.604;2023-08-06T01:59:21;4.28;;;1.10;;
16820;SDS011;8527;49.740;6.604;2023-08-06T02:04:22;3.10;;;1.27;;
16820;SDS011;8527;49.740;6.604;2023-08-06T02:09:21;3.55;;;1.13;;
16820;SDS011;8527;49.740;6.604;2023-08-06T02:14:22;5.25;;;1.55;;
16820;SDS011;8527;49.740;6.604;2023-08-06T02:19:21;4.55;;;0.85;;
16820;SDS011;8527;49.740;6.604;2023-08-06T02:24:22;3.17;;;0.70;;
16820;SDS011;8527;49.740;6.604;2023-08-06T02:29:23;4.00;;;1.02;;
16820;SDS011;8527;49.740;6.604;2023-08-06T02:34:26;2.58;;;0.80;;
16820;SDS011;8527;49.740;6.604;2023-08-06T02:39:34;9.70;;;0.73;;
16820;SDS011;8527;49.740;6.604;2023-08-06T02:44:40;1.85;;;0.40;;
16820;SDS011;8527;49.740;6.604;2023-08-06T02:49:42;5.03;;;0.88;;
16820;SDS011;8527;49.740;6.604;2023-08-06T02:54:41;2.88;;;0.93;;
16820;SDS011;8527;49.740;6.604;2023-08-06T02:59:49;5.18;;;0.95;;
16820;SDS011;8527;49.740;6.604;2023-08-06T03:04:50;8.32;;;1.00;;
16820;SDS011;8527;49.740;6.604;2023-08-06T03:09:52;2.10;;;0.75;;
16820;SDS011;8527;49.740;6.604;2023-08-06T03:15:02;1.67;;;0.88;;
16820;SDS011;8527;49.740;6.604;2023-08-06T03:20:04;2.95;;;0.77;;
16820;SDS011;8527;49.740;6.604;2023-08-06T03:25:21;4.97;;;1.33;;
16820;SDS011;8527;49.740;6.604;2023-08-06T03:30:30;2.10;;;0.70;;
16820;SDS011;8527;49.740;6.604;2023-08-06T03:35:31;1.90;;;0.80;;
16820;SDS011;8527;49.740;6.604;2023-08-06T03:40:34;4.22;;;1.08;;
16820;SDS011;8527;49.740;6.604;2023-08-06T03:45:38;2.95;;;1.35;;
16820;SDS011;8527;49.740;6.604;2023-08-06T03:50:43;4.93;;;0.80;;
16820;SDS011;8527;49.740;6.604;2023-08-06T03:55:49;3.35;;;0.95;;
16820;SDS011;8527;49.740;6.604;2023-08-06T04:01:00;5.00;;;1.00;;
16820;SDS011;8527;49.740;6.604;2023-08-06T04:06:01;2.97;;;1.20;;
16820;SDS011;8527;49.740;6.604;2023-08-06T04:11:01;2.55;;;1.20;;
16820;SDS011;8527;49.740;6.604;2023-08-06T04:16:08;3.17;;;1.08;;
16820;SDS011;8527;49.740;6.604;2023-08-06T04:21:10;2.28;;;1.25;;
16820;SDS011;8527;49.740;6.604;2023-08-06T04:26:09;2.80;;;1.20;;
16820;SDS011;8527;49.740;6.604;2023-08-06T04:31:11;5.78;;;1.40;;
16820;SDS011;8527;49.740;6.604;2023-08-06T04:36:10;2.22;;;1.33;;
16820;SDS011;8527;49.740;6.604;2023-08-06T04:41:09;3.53;;;1.23;;
16820;SDS011;8527;49.740;6.604;2023-08-06T04:46:12;3.33;;;1.40;;
16820;SDS011;8527;49.740;6.604;2023-08-06T04:51:14;5.70;;;1.38;;
16820;SDS011;8527;49.740;6.604;2023-08-06T04:56:16;3.75;;;1.30;;
16820;SDS011;8527;49.740;6.604;2023-08-06T05:01:21;3.40;;;1.27;;
16820;SDS011;8527;49.740;6.604;2023-08-06T05:06:19;4.25;;;1.30;;
16820;SDS011;8527;49.740;6.604;2023-08-06T05:11:23;2.00;;;1.00;;
16820;SDS011;8527;49.740;6.604;2023-08-06T05:16:26;2.80;;;1.10;;
16820;SDS011;8527;49.740;6.604;2023-08-06T05:21:25;2.10;;;1.25;;
16820;SDS011;8527;49.740;6.604;2023-08-06T05:26:23;2.88;;;1.20;;
16820;SDS011;8527;49.740;6.604;2023-08-06T05:31:28;4.45;;;1.10;;
16820;SDS011;8527;49.740;6.604;2023-08-06T05:36:26;1.55;;;1.10;;
16820;SDS011;8527;49.740;6.604;2023-08-06T05:41:25;2.17;;;1.40;;
16820;SDS011;8527;49.740;6.604;2023-08-06T05:46:23;1.30;;;1.10;;
16820;SDS011;8527;49.740;6.604;2023-08-06T05:51:30;3.33;;;1.20;;
16820;SDS011;8527;49.740;6.604;2023-08-06T05:56:35;3.42;;;0.90;;
16820;SDS011;8527;49.740;6.604;2023-08-06T06:01:36;6.47;;;1.17;;
16820;SDS011;8527;49.740;6.604;2023-08-06T06:06:40;3.50;;;1.52;;
16820;SDS011;8527;49.740;6.604;2023-08-06T06:11:48;2.10;;;1.20;;
16820;SDS011;8527;49.740;6.604;2023-08-06T06:16:47;4.30;;;1.13;;
16820;SDS011;8527;49.740;6.604;2023-08-06T06:21:48;4.72;;;1.20;;
16820;SDS011;8527;49.740;6.604;2023-08-06T06:26:48;2.35;;;1.40;;
16820;SDS011;8527;49.740;6.604;2023-08-06T06:31:52;2.35;;;1.15;;
16820;SDS011;8527;49.740;6.604;2023-08-06T06:36:53;1.85;;;1.60;;
16820;SDS011;8527;49.740;6.604;2023-08-06T06:41:51;3.38;;;1.35;;
16820;SDS011;8527;49.740;6.604;2023-08-06T06:46:49;1.42;;;1.23;;
16820;SDS011;8527;49.740;6.604;2023-08-06T06:51:48;2.30;;;1.40;;
16820;SDS011;8527;49.740;6.604;2023-08-06T06:56:49;2.55;;;1.00;;
16820;SDS011;8527;49.740;6.604;2023-08-06T07:01:50;1.23;;;1.13;;
16820;SDS011;8527;49.740;6.604;2023-08-06T07:06:48;2.65;;;0.90;;
16820;SDS011;8527;49.740;6.604;2023-08-06T07:11:54;7.05;;;0.93;;
16820;SDS011;8527;49.740;6.604;2023-08-06T07:16:53;1.38;;;0.75;;
16820;SDS011;8527;49.740;6.604;2023-08-06T07:22:00;1.17;;;0.63;;
16820;SDS011;8527;49.740;6.604;2023-08-06T07:27:01;0.75;;;0.57;;
16820;SDS011;8527;49.740;6.604;2023-08-06T07:32:02;0.70;;;0.70;;
16820;SDS011;8527;49.740;6.604;2023-08-06T07:37:01;1.02;;;0.82;;
16820;SDS011;8527;49.740;6.604;2023-08-06T07:42:05;1.48;;;0.70;;
16820;SDS011;8527;49.740;6.604;2023-08-06T07:47:04;1.95;;;0.93;;
16820;SDS011;8527;49.740;6.604;2023-08-06T07:52:06;3.50;;;0.95;;
16820;SDS011;8527;49.740;6.604;2023-08-06T07:57:10;0.93;;;0.50;;
16820;SDS011;8527;49.740;6.604;2023-08-06T08:02:10;0.60;;;0.60;;
16820;SDS011;8527;49.740;6.604;2023-08-06T08:07:09;0.73;;;0.70;;
16820;SDS011;8527;49.740;6.604;2023-08-06T08:12:11;0.60;;;0.60;;
16820;SDS011;8527;49.740;6.604;2023-08-06T08:17:09;1.02;;;0.55;;
16820;SDS011;8527;49.740;6.604;2023-08-06T08:22:08;0.63;;;0.45;;
16820;SDS011;8527;49.740;6.604;2023-08-06T08:27:06;1.63;;;0.50;;
16820;SDS011;8527;49.740;6.604;2023-08-06T08:32:07;1.05;;;0.80;;
16820;SDS011;8527;49.740;6.604;2023-08-06T08:37:06;3.50;;;0.85;;
16820;SDS011;8527;49.740;6.604;2023-08-06T08:42:07;1.42;;;0.68;;
16820;SDS011;8527;49.740;6.604;2023-08-06T08:47:10;2.58;;;0.70;;
16820;SDS011;8527;49.740;6.604;2023-08-06T08:52:11;1.15;;;0.77;;
16820;SDS011;8527;49.740;6.604;2023-08-06T08:57:13;0.77;;;0.77;;
16820;SDS011;8527;49.740;6.604;2023-08-06T09:02:17;1.25;;;1.00;;
16820;SDS011;8527;49.740;6.604;2023-08-06T09:07:19;1.58;;;1.30;;
16820;SDS011;8527;49.740;6.604;2023-08-06T09:12:19;1.50;;;1.30;;
16820;SDS011;8527;49.740;6.604;2023-08-06T09:17:21;1.27;;;1.17;;
16820;SDS011;8527;49.740;6.604;2023-08-06T09:22:20;3.63;;;1.25;;
16820;SDS011;8527;49.740;6.604;2023-08-06T09:27:18;2.05;;;1.40;;
16820;SDS011;8527;49.740;6.604;2023-08-06T09:32:16;2.53;;;1.70;;
16820;SDS011;8527;49.740;6.604;2023-08-06T09:37:17;2.55;;;1.38;;
16820;SDS011;8527;49.740;6.604;2023-08-06T09:42:16;2.65;;;1.70;;
16820;SDS011;8527;49.740;6.604;2023-08-06T09:47:16;2.33;;;1.80;;
16820;SDS011;8527;49.740;6.604;2023-08-06T09:52:20;4.28;;;2.10;;
16820;SDS011;8527;49.740;6.604;2023-08-06T09:57:20;4.03;;;2.20;;
16820;SDS011;8527;49.740;6.604;2023-08-06T10:02:19;4.20;;;2.00;;
16820;SDS011;8527;49.740;6.604;2023-08-06T10:07:25;2.42;;;1.83;;
16820;SDS011;8527;49.740;6.604;2023-08-06T10:12:23;4.20;;;2.20;;
16820;SDS011;8527;49.740;6.604;2023-08-06T10:17:25;3.22;;;2.15;;
16820;SDS011;8527;49.740;6.604;2023-08-06T10:22:27;3.72;;;1.83;;
16820;SDS011;8527;49.740;6.604;2023-08-06T10:27:28;3.75;;;1.85;;
16820;SDS011;8527;49.740;6.604;2023-08-06T10:37:47;4.77;;;2.00;;
16820;SDS011;8527;49.740;6.604;2023-08-06T10:42:45;2.45;;;1.20;;
16820;SDS011;8527;49.740;6.604;2023-08-06T10:47:44;4.85;;;1.80;;
16820;SDS011;8527;49.740;6.604;2023-08-06T10:52:43;4.05;;;1.83;;
16820;SDS011;8527;49.740;6.604;2023-08-06T10:57:44;3.05;;;1.70;;
16820;SDS011;8527;49.740;6.604;2023-08-06T11:02:42;2.60;;;1.58;;
16820;SDS011;8527;49.740;6.604;2023-08-06T11:07:44;3.88;;;1.70;;
16820;SDS011;8527;49.740;6.604;2023-08-06T11:12:46;2.72;;;0.95;;
16820;SDS011;8527;49.740;6.604;2023-08-06T11:17:44;3.38;;;0.80;;
16820;SDS011;8527;49.740;6.604;2023-08-06T11:22:43;1.60;;;0.90;;
16820;SDS011;8527;49.740;6.604;2023-08-06T11:27:41;0.73;;;0.70;;
16820;SDS011;8527;49.740;6.604;2023-08-06T11:32:47;1.90;;;0.90;;
16820;SDS011;8527;49.740;6.604;2023-08-06T11:37:46;2.97;;;0.90;;
16820;SDS011;8527;49.740;6.604;2023-08-06T11:42:46;2.25;;;1.02;;
16820;SDS011;8527;49.740;6.604;2023-08-06T11:47:51;3.88;;;1.38;;
16820;SDS011;8527;49.740;6.604;2023-08-06T11:52:52;1.40;;;1.20;;
16820;SDS011;8527;49.740;6.604;2023-08-06T11:57:52;3.15;;;1.20;;
16820;SDS011;8527;49.740;6.604;2023-08-06T12:02:53;3.65;;;1.50;;
16820;SDS011;8527;49.740;6.604;2023-08-06T12:07:52;4.03;;;1.58;;
16820;SDS011;8527;49.740;6.604;2023-08-06T12:12:54;2.88;;;1.00;;
16820;SDS011;8527;49.740;6.604;2023-08-06T12:17:56;3.90;;;0.98;;
16820;SDS011;8527;49.740;6.604;2023-08-06T12:22:54;5.18;;;1.63;;
16820;SDS011;8527;49.740;6.604;2023-08-06T12:27:55;2.75;;;1.27;;
16820;SDS011;8527;49.740;6.604;2023-08-06T12:32:56;2.72;;;1.20;;
16820;SDS011;8527;49.740;6.604;2023-08-06T12:37:55;5.18;;;1.10;;
16820;SDS011;8527;49.740;6.604;2023-08-06T12:42:56;3.22;;;0.88;;
16820;SDS011;8527;49.740;6.604;2023-08-06T12:47:57;2.35;;;1.00;;
16820;SDS011;8527;49.740;6.604;2023-08-06T12:52:56;2.83;;;1.58;;
16820;SDS011;8527;49.740;6.604;2023-08-06T12:57:55;2.15;;;1.33;;
16820;SDS011;8527;49.740;6.604;2023-08-06T13:02:53;1.75;;;1.27;;
16820;SDS011;8527;49.740;6.604;2023-08-06T13:07:55;4.00;;;1.20;;
16820;SDS011;8527;49.740;6.604;2023-08-06T13:12:53;3.50;;;1.35;;
16820;SDS011;8527;49.740;6.604;2023-08-06T13:17:51;1.83;;;1.20;;
16820;SDS011;8527;49.740;6.604;2023-08-06T13:22:50;3.33;;;1.15;;
16820;SDS011;8527;49.740;6.604;2023-08-06T13:27:54;3.38;;;0.95;;
16820;SDS011;8527;49.740;6.604;2023-08-06T13:32:52;1.92;;;1.08;;
16820;SDS011;8527;49.740;6.604;2023-08-06T13:37:51;2.20;;;0.98;;
16820;SDS011;8527;49.740;6.604;2023-08-06T13:42:50;2.38;;;0.95;;
16820;SDS011;8527;49.740;6.604;2023-08-06T13:47:51;7.72;;;1.65;;
16820;SDS011;8527;49.740;6.604;2023-08-06T13:52:49;3.20;;;1.40;;
16820;SDS011;8527;49.740;6.604;2023-08-06T13:57:50;3.22;;;1.10;;
16820;SDS011;8527;49.740;6.604;2023-08-06T14:02:51;3.58;;;1.13;;
16820;SDS011;8527;49.740;6.604;2023-08-06T14:07:49;3.85;;;1.50;;
16820;SDS011;8527;49.740;6.604;2023-08-06T14:12:47;1.27;;;0.90;;
16820;SDS011;8527;49.740;6.604;2023-08-06T14:17:46;2.45;;;1.00;;
16820;SDS011;8527;49.740;6.604;2023-08-06T14:22:47;2.50;;;1.13;;
16820;SDS011;8527;49.740;6.604;2023-08-06T14:27:45;2.47;;;1.27;;
16820;SDS011;8527;49.740;6.604;2023-08-06T14:32:46;1.90;;;1.10;;
16820;SDS011;8527;49.740;6.604;2023-08-06T14:37:47;4.93;;;1.45;;
16820;SDS011;8527;49.740;6.604;2023-08-06T14:42:45;3.00;;;1.35;;
16820;SDS011;8527;49.740;6.604;2023-08-06T14:47:44;3.80;;;1.52;;
16820;SDS011;8527;49.740;6.604;2023-08-06T14:52:47;3.70;;;1.50;;
16820;SDS011;8527;49.740;6.604;2023-08-06T14:57:45;1.88;;;1.40;;
16820;SDS011;8527;49.740;6.604;2023-08-06T15:02:47;3.08;;;1.30;;
16820;SDS011;8527;49.740;6.604;2023-08-06T15:07:51;1.35;;;1.10;;
16820;SDS011;8527;49.740;6.604;2023-08-06T15:12:50;4.53;;;1.90;;
16820;SDS011;8527;49.740;6.604;2023-08-06T15:17:57;2.28;;;1.25;;
16820;SDS011;8527;49.740;6.604;2023-08-06T15:22:58;3.15;;;1.40;;
16820;SDS011;8527;49.740;6.604;2023-08-06T15:27:59;1.58;;;0.95;;
16820;SDS011;8527;49.740;6.604;2023-08-06T15:32:57;3.55;;;1.27;;
16820;SDS011;8527;49.740;6.604;2023-08-06T15:37:55;2.25;;;1.20;;
16820;SDS011;8527;49.740;6.604;2023-08-06T15:42:56;2.78;;;1.00;;
16820;SDS011;8527;49.740;6.604;2023-08-06T15:47:55;1.60;;;1.35;;
16820;SDS011;8527;49.740;6.604;2023-08-06T15:52:53;3.30;;;1.20;;
16820;SDS011;8527;49.740;6.604;2023-08-06T15:57:54;5.20;;;1.23;;
16820;SDS011;8527;49.740;6.604;2023-08-06T16:02:52;2.03;;;1.25;;
16820;SDS011;8527;49.740;6.604;2023-08-06T16:07:51;3.20;;;1.25;;
16820;SDS011;8527;49.740;6.604;2023-08-06T16:12:49;7.95;;;1.58;;
16820;SDS011;8527;49.740;6.604;2023-08-06T16:17:50;2.95;;;1.20;;
16820;SDS011;8527;49.740;6.604;2023-08-06T16:22:49;1.15;;;1.08;;
16820;SDS011;8527;49.740;6.604;2023-08-06T16:27:47;4.13;;;1.48;;
16820;SDS011;8527;49.740;6.604;2023-08-06T16:32:45;4.32;;;1.20;;
16820;SDS011;8527;49.740;6.604;2023-08-06T16:37:47;5.38;;;1.67;;
16820;SDS011;8527;49.740;6.604;2023-08-06T16:42:46;4.70;;;1.30;;
16820;SDS011;8527;49.740;6.604;2023-08-06T16:47:47;2.05;;;1.17;;
16820;SDS011;8527;49.740;6.604;2023-08-06T16:52:48;2.05;;;1.30;;
16820;SDS011;8527;49.740;6.604;2023-08-06T16:57:46;3.45;;;1.38;;
16820;SDS011;8527;49.740;6.604;2023-08-06T17:02:45;2.67;;;1.23;;
16820;SDS011;8527;49.740;6.604;2023-08-06T17:07:48;2.75;;;1.23;;
16820;SDS011;8527;49.740;6.604;2023-08-06T17:12:48;4.40;;;1.58;;
16820;SDS011;8527;49.740;6.604;2023-08-06T17:17:48;4.90;;;1.70;;
16820;SDS011;8527;49.740;6.604;2023-08-06T17:22:49;4.97;;;1.52;;
16820;SDS011;8527;49.740;6.604;2023-08-06T17:27:47;3.38;;;1.30;;
16820;SDS011;8527;49.740;6.604;2023-08-06T17:32:46;7.22;;;1.63;;
16820;SDS011;8527;49.740;6.604;2023-08-06T17:37:50;3.03;;;1.23;;
16820;SDS011;8527;49.740;6.604;2023-08-06T17:42:52;6.13;;;1.80;;
16820;SDS011;8527;49.740;6.604;2023-08-06T17:47:50;4.07;;;1.85;;
16820;SDS011;8527;49.740;6.604;2023-08-06T17:52:52;2.22;;;1.35;;
16820;SDS011;8527;49.740;6.604;2023-08-06T17:57:50;4.43;;;1.60;;
16820;SDS011;8527;49.740;6.604;2023-08-06T18:02:49;2.67;;;1.33;;
16820;SDS011;8527;49.740;6.604;2023-08-06T18:07:47;3.20;;;1.70;;
16820;SDS011;8527;49.740;6.604;2023-08-06T18:12:48;3.03;;;1.75;;
16820;SDS011;8527;49.740;6.604;2023-08-06T18:17:46;7.25;;;2.05;;
16820;SDS011;8527;49.740;6.604;2023-08-06T18:22:45;4.22;;;1.42;;
16820;SDS011;8527;49.740;6.604;2023-08-06T18:27:43;8.50;;;1.73;;
16820;SDS011;8527;49.740;6.604;2023-08-06T18:32:44;3.45;;;1.80;;
16820;SDS011;8527;49.740;6.604;2023-08-06T18:37:46;3.50;;;1.48;;
16820;SDS011;8527;49.740;6.604;2023-08-06T18:42:46;4.22;;;1.67;;
16820;SDS011;8527;49.740;6.604;2023-08-06T18:47:47;7.43;;;1.88;;
16820;SDS011;8527;49.740;6.604;2023-08-06T18:52:45;8.38;;;2.03;;
16820;SDS011;8527;49.740;6.604;2023-08-06T18:57:45;12.27;;;2.75;;
16820;SDS011;8527;49.740;6.604;2023-08-06T19:02:43;6.05;;;3.05;;
16820;SDS011;8527;49.740;6.604;2023-08-06T19:07:44;6.75;;;3.17;;
16820;SDS011;8527;49.740;6.604;2023-08-06T19:12:42;7.93;;;3.10;;
16820;SDS011;8527;49.740;6.604;2023-08-06T19:17:41;9.10;;;2.70;;
16820;SDS011;8527;49.740;6.604;2023-08-06T19:22:39;14.15;;;3.70;;
16820;SDS011;8527;49.740;6.604;2023-08-06T19:27:40;8.73;;;2.92;;
16820;SDS011;8527;49.740;6.604;2023-08-06T19:32:39;9.40;;;3.08;;
16820;SDS011;8527;49.740;6.604;2023-08-06T19:37:37;6.15;;;3.20;;
16820;SDS011;8527;49.740;6.604;2023-08-06T19:42:35;13.57;;;2.95;;
16820;SDS011;8527;49.740;6.604;2023-08-06T19:47:36;8.43;;;2.42;;
16820;SDS011;8527;49.740;6.604;2023-08-06T19:52:35;8.93;;;2.65;;
16820;SDS011;8527;49.740;6.604;2023-08-06T19:57:33;8.57;;;2.22;;
16820;SDS011;8527;49.740;6.604;2023-08-06T20:02:37;10.73;;;2.58;;
16820;SDS011;8527;49.740;6.604;2023-08-06T20:07:36;8.30;;;2.35;;
16820;SDS011;8527;49.740;6.604;2023-08-06T20:12:34;13.23;;;2.58;;
16820;SDS011;8527;49.740;6.604;2023-08-06T20:17:33;7.15;;;2.70;;
16820;SDS011;8527;49.740;6.604;2023-08-06T20:22:34;7.07;;;3.00;;
16820;SDS011;8527;49.740;6.604;2023-08-06T20:27:32;9.40;;;3.10;;
16820;SDS011;8527;49.740;6.604;2023-08-06T20:32:31;9.27;;;2.55;;
16820;SDS011;8527;49.740;6.604;2023-08-06T20:37:29;7.68;;;3.13;;
16820;SDS011;8527;49.740;6.604;2023-08-06T20:42:33;8.57;;;2.83;;
16820;SDS011;8527;49.740;6.604;2023-08-06T20:47:32;10.93;;;2.75;;
16820;SDS011;8527;49.740;6.604;2023-08-06T20:52:30;6.57;;;2.60;;
16820;SDS011;8527;49.740;6.604;2023-08-06T20:57:29;17.33;;;4.25;;
16820;SDS011;8527;49.740;6.604;2023-08-06T21:02:30;9.35;;;2.50;;
16820;SDS011;8527;49.740;6.604;2023-08-06T21:07:28;8.45;;;2.65;;
16820;SDS011;8527;49.740;6.604;2023-08-06T21:12:27;8.85;;;2.55;;
16820;SDS011;8527;49.740;6.604;2023-08-06T21:17:25;7.43;;;2.53;;
16820;SDS011;8527;49.740;6.604;2023-08-06T21:22:26;7.53;;;2.75;;
16820;SDS011;8527;49.740;6.604;2023-08-06T21:27:25;7.88;;;2.67;;
16820;SDS011;8527;49.740;6.604;2023-08-06T21:32:23;8.68;;;2.70;;
16820;SDS011;8527;49.740;6.604;2023-08-06T21:37:22;8.25;;;2.28;;
16820;SDS011;8527;49.740;6.604;2023-08-06T21:42:23;9.75;;;2.47;;
16820;SDS011;8527;49.740;6.604;2023-08-06T21:47:21;8.88;;;2.90;;
16820;SDS011;8527;49.740;6.604;2023-08-06T21:52:19;10.38;;;2.70;;
16820;SDS011;8527;49.740;6.604;2023-08-06T21:57:18;5.78;;;2.17;;
16820;SDS011;8527;49.740;6.604;2023-08-06T22:02:19;9.70;;;2.20;;
16820;SDS011;8527;49.740;6.604;2023-08-06T22:07:17;8.57;;;2.50;;
16820;SDS011;8527;49.740;6.604;2023-08-06T22:12:15;12.95;;;2.65;;
16820;SDS011;8527;49.740;6.604;2023-08-06T22:17:14;6.43;;;2.33;;
16820;SDS011;8527;49.740;6.604;2023-08-06T22:22:15;6.22;;;2.40;;
16820;SDS011;8527;49.740;6.604;2023-08-06T22:27:14;10.15;;;2.95;;
16820;SDS011;8527;49.740;6.604;2023-08-06T22:32:13;9.43;;;2.50;;
16820;SDS011;8527;49.740;6.604;2023-08-06T22:37:11;10.95;;;2.47;;
16820;SDS011;8527;49.740;6.604;2023-08-06T22:42:12;7.10;;;2.22;;
16820;SDS011;8527;49.740;6.604;2023-08-06T22:47:11;6.95;;;2.33;;
16820;SDS011;8527;49.740;6.604;2023-08-06T22:52:09;12.13;;;2.65;;
16820;SDS011;8527;49.740;6.604;2023-08-06T22:57:13;10.02;;;2.40;;
16820;SDS011;8527;49.740;6.604;2023-08-06T23:02:11;6.47;;;2.40;;
16820;SDS011;8527;49.740;6.604;2023-08-06T23:07:10;9.38;;;3.17;;
16820;SDS011;8527;49.740;6.604;2023-08-06T23:12:08;9.23;;;2.33;;
16820;SDS011;8527;49.740;6.604;2023-08-06T23:17:09;9.50;;;2.60;;
16820;SDS011;8527;49.740;6.604;2023-08-06T23:22:08;7.05;;;2.60;;
16820;SDS011;8527;49.740;6.604;2023-08-06T23:27:06;5.88;;;2.30;;
16820;SDS011;8527;49.740;6.604;2023-08-06T23:32:10;9.85;;;2.60;;
16820;SDS011;8527;49.740;6.604;2023-08-06T23:37:08;6.40;;;2.20;;
16820;SDS011;8527;49.740;6.604;2023-08-06T23:42:07;12.85;;;2.75;;
16820;SDS011;8527;49.740;6.604;2023-08-06T23:47:10;11.13;;;3.20;;
16820;SDS011;8527;49.740;6.604;2023-08-06T23:52:09;9.85;;;2.08;;
16820;SDS011;8527;49.740;6.604;2023-08-06T23:57:07;9.18;;;2.30;;
